Kahloke — CZ3845 — position and weather

sailwx.info

Track history (hours):
 
Tides and Currents Weather Stations Pressure Air Temp Water Temp Dewpoint Dewpoint Depression Visibility Wind Speed Wind Dir Waves Ship Positions

Kahloke

Last reported at 2014-Oct-23 07:32 UTC. Time now 2014-Oct-23 09:25 UTC.
Position N 48°59' W 123°41'.

Length 54 m; draft 2 m.

Type: Passenger vessel. MMSI: 316001236.

Date/timePositionNaut miles runAvg speedWind from/ knotsBaromVisibWave heightAir tempDewpointWater temp
2014-Oct-23 07:32N 48°59' W 123°41'1 0.4
2014-Oct-23 05:33N 48°58' W 123°40'2 1.6
2014-Oct-23 04:33N 48°57' W 123°42'1 0.7
2014-Oct-23 03:33N 48°56' W 123°42'2 1.8
2014-Oct-23 02:34N 48°58' W 123°40'3 2.5
2014-Oct-23 01:34N 48°56' W 123°43'3 2.9
2014-Oct-23 00:33N 48°59' W 123°41'0 0.3
2014-Oct-22 23:34N 48°58' W 123°41'3 2.7
2014-Oct-22 22:27N 48°56' W 123°43'4 4.0
2014-Oct-22 21:33N 48°59' W 123°41'3 3.0
2014-Oct-22 20:33N 48°56' W 123°42'1 1.4
2014-Oct-22 19:33N 48°57' W 123°41'1 0.7
2014-Oct-22 18:33N 48°57' W 123°42'1 0.9
2014-Oct-22 17:33N 48°57' W 123°42'2 1.7
2014-Oct-22 16:33N 48°58' W 123°40'3 2.9
2014-Oct-22 15:33N 48°56' W 123°43'3 3.1
2014-Oct-22 14:33N 48°58' W 123°40'0 0.3
2014-Oct-22 13:32N 48°58' W 123°40'1 0.7
2014-Oct-22 12:17N 48°59' W 123°41'0 0.0
2014-Oct-22 10:23N 48°59' W 123°41'0 0.0
2014-Oct-22 08:29N 48°59' W 123°41'0 0.0
2014-Oct-22 07:29N 48°59' W 123°41'0 0.0
2014-Oct-22 06:29N 48°59' W 123°41'1 0.9
2014-Oct-22 05:33N 48°58' W 123°40'1 1.4
2014-Oct-22 04:32N 48°57' W 123°42'1 1.0
2014-Oct-22 03:33N 48°56' W 123°42'2 1.7
2014-Oct-22 02:33N 48°58' W 123°40'2 2.2
2014-Oct-22 01:33N 48°56' W 123°42'1 1.2
2014-Oct-22 00:32N 48°57' W 123°42'2 1.8
2014-Oct-21 23:33N 48°59' W 123°41'4 3.6
2014-Oct-21 22:33N 48°56' W 123°43'4 3.6
2014-Oct-21 21:33N 48°59' W 123°41'3 3.1
2014-Oct-21 20:33N 48°56' W 123°43'2 2.0
2014-Oct-21 19:33N 48°57' W 123°40'1 1.3
2014-Oct-21 18:34N 48°57' W 123°42'0 0.5
2014-Oct-21 17:33N 48°57' W 123°41'2 1.7
2014-Oct-21 16:32N 48°58' W 123°40'3 3.2
2014-Oct-21 15:33N 48°56' W 123°43'3 3.1
2014-Oct-21 14:33N 48°58' W 123°40'0 0.2
2014-Oct-21 13:30N 48°58' W 123°40'1 0.8
2014-Oct-21 12:21N 48°59' W 123°41'0 0.0
2014-Oct-21 11:15N 48°59' W 123°41'0 0.0
2014-Oct-21 10:33N 48°59' W 123°41'0 0.0
2014-Oct-21 08:33N 48°59' W 123°41'0 0.0
2014-Oct-21 07:33N 48°59' W 123°41'0 0.0
2014-Oct-21 06:33N 48°59' W 123°41'1 0.9
2014-Oct-21 05:32N 48°58' W 123°40'2 1.6
2014-Oct-21 04:33N 48°57' W 123°42'1 0.9
2014-Oct-21 03:33N 48°56' W 123°42'2 2.1
2014-Oct-21 02:33N 48°58' W 123°40'3 2.9
2014-Oct-21 01:33N 48°56' W 123°43'2 2.4
2014-Oct-21 00:32N 48°58' W 123°42'1 1.2
2014-Oct-20 23:33N 48°59' W 123°41'4 3.6
2014-Oct-20 22:33N 48°56' W 123°43'4 3.6
2014-Oct-20 21:33N 48°59' W 123°41'0 0.3
2014-Oct-20 20:33N 48°59' W 123°41'3 2.3
2014-Oct-20 19:06N 48°56' W 123°43'2 3.5
2014-Oct-20 18:32N 48°57' W 123°42'1 0.6
2014-Oct-20 17:33N 48°57' W 123°41'2 1.8
2014-Oct-20 16:33N 48°58' W 123°40'3 3.2
2014-Oct-20 15:33N 48°56' W 123°43'2 2.3
2014-Oct-20 14:33N 48°57' W 123°40'1 0.9
2014-Oct-20 13:33N 48°58' W 123°40'1 0.7
2014-Oct-20 12:09N 48°59' W 123°41'0 0.0
2014-Oct-20 10:33N 48°59' W 123°41'0 0.0
2014-Oct-20 08:21N 48°59' W 123°41'0 0.0
2014-Oct-20 06:15N 48°59' W 123°41'1 1.3
2014-Oct-20 05:32N 48°58' W 123°40'2 1.7
2014-Oct-20 04:33N 48°57' W 123°42'1 1.1
2014-Oct-20 03:33N 48°56' W 123°42'2 2.0
2014-Oct-20 02:33N 48°58' W 123°41'2 2.5
2014-Oct-20 01:33N 48°56' W 123°43'2 2.0
2014-Oct-20 00:33N 48°58' W 123°42'1 0.8
2014-Oct-19 23:33N 48°58' W 123°41'3 3.2
2014-Oct-19 22:33N 48°56' W 123°43'4 3.5
2014-Oct-19 21:32N 48°59' W 123°41'3 3.2
2014-Oct-19 20:34N 48°56' W 123°43'2 1.9
2014-Oct-19 19:33N 48°57' W 123°40'2 2.3
2014-Oct-19 18:33N 48°56' W 123°43'3 3.3
2014-Oct-19 17:32N 48°58' W 123°40'0 0.3
2014-Oct-19 16:33N 48°58' W 123°40'3 3.1
2014-Oct-19 15:33N 48°56' W 123°43'3 2.5
2014-Oct-19 14:33N 48°57' W 123°40'1 0.7
2014-Oct-19 13:33N 48°58' W 123°41'1 0.8
2014-Oct-19 12:31N 48°59' W 123°41'0 0.0
2014-Oct-19 08:20N 48°59' W 123°41'0 0.0
2014-Oct-19 07:26N 48°59' W 123°41'0 0.0
2014-Oct-19 06:31N 48°59' W 123°41'1 0.9
2014-Oct-19 05:32N 48°58' W 123°40'1 1.3
2014-Oct-19 04:33N 48°58' W 123°41'2 2.0
2014-Oct-19 03:33N 48°56' W 123°42'2 2.5
2014-Oct-19 02:33N 48°58' W 123°40'3 3.0
2014-Oct-19 01:34N 48°56' W 123°43'3 2.6
2014-Oct-19 00:32N 48°58' W 123°41'1 0.9
2014-Oct-18 23:33N 48°59' W 123°41'4 3.6
2014-Oct-18 22:33N 48°56' W 123°43'4 3.6
2014-Oct-18 21:34N 48°59' W 123°41'3 3.3
2014-Oct-18 20:33N 48°56' W 123°43'2 2.2
2014-Oct-18 19:33N 48°57' W 123°40'2 2.1
2014-Oct-18 18:26N 48°56' W 123°43'3 3.6
2014-Oct-18 17:29N 48°58' W 123°40'0 0.3
2014-Oct-18 16:33N 48°58' W 123°40'3 3.0
2014-Oct-18 15:31N 48°56' W 123°43'3 3.5
2014-Oct-18 14:34N 48°58' W 123°40'0 0.0
2014-Oct-18 13:32N 48°58' W 123°40'1 0.8
2014-Oct-18 12:21N 48°59' W 123°41'0 0.0
2014-Oct-18 11:09N 48°59' W 123°41'0 0.0
2014-Oct-18 10:03N 48°59' W 123°41'0 0.0
2014-Oct-18 09:21N 48°59' W 123°41'0 0.0
2014-Oct-18 07:03N 48°59' W 123°41'1 0.6
2014-Oct-18 05:33N 48°58' W 123°40'2 1.7
2014-Oct-18 04:32N 48°57' W 123°42'1 0.8
2014-Oct-18 03:33N 48°56' W 123°42'2 2.0
2014-Oct-18 02:33N 48°58' W 123°41'2 1.8
2014-Oct-18 01:33N 48°57' W 123°41'1 0.9
2014-Oct-18 00:33N 48°56' W 123°42'2 2.5
2014-Oct-17 23:33N 48°58' W 123°40'1 1.3
2014-Oct-17 22:33N 48°57' W 123°41'1 0.8
2014-Oct-17 21:33N 48°57' W 123°42'2 1.7
2014-Oct-17 20:33N 48°58' W 123°41'3 2.8
2014-Oct-17 19:33N 48°56' W 123°43'0 0.1
2014-Oct-17 18:29N 48°56' W 123°43'3 3.6
2014-Oct-17 17:32N 48°58' W 123°40'1 1.4
2014-Oct-17 16:33N 48°58' W 123°42'2 2.1
2014-Oct-17 15:33N 48°56' W 123°43'3 2.6
2014-Oct-17 14:33N 48°58' W 123°40'1 0.6
2014-Oct-17 13:33N 48°58' W 123°40'1 0.9
2014-Oct-17 12:30N 48°59' W 123°41'0 0.0
2014-Oct-17 11:30N 48°59' W 123°41'0 0.0
2014-Oct-17 10:30N 48°59' W 123°41'0 0.0
2014-Oct-17 09:12N 48°59' W 123°41'0 0.0
2014-Oct-17 07:30N 48°59' W 123°41'0 0.0
2014-Oct-17 06:24N 48°59' W 123°41'3 4.1
2014-Oct-17 05:33N 48°56' W 123°43'3 3.3
2014-Oct-17 04:33N 48°58' W 123°40'0 0.3
2014-Oct-17 03:33N 48°58' W 123°40'3 3.2
2014-Oct-17 02:33N 48°56' W 123°43'3 2.9
2014-Oct-17 01:33N 48°58' W 123°41'1 0.7
2014-Oct-17 00:33N 48°59' W 123°41'4 3.6
2014-Oct-16 23:33N 48°56' W 123°43'3 3.0
2014-Oct-16 22:33N 48°58' W 123°41'3 3.0
2014-Oct-16 21:33N 48°56' W 123°43'3 3.4
2014-Oct-16 20:33N 48°58' W 123°40'3 3.4
2014-Oct-16 19:33N 48°56' W 123°43'4 3.6
2014-Oct-16 18:34N 48°59' W 123°41'4 3.5
2014-Oct-16 17:33N 48°56' W 123°43'1 0.9
2014-Oct-16 16:12N 48°57' W 123°42'1 1.7
2014-Oct-16 15:34N 48°58' W 123°42'1 1.4
2014-Oct-16 14:32N 48°56' W 123°42'2 2.4
2014-Oct-16 13:33N 48°58' W 123°40'1 1.0
2014-Oct-16 12:33N 48°59' W 123°41'0 0.0
2014-Oct-16 11:33N 48°59' W 123°41'0 0.0
2014-Oct-16 10:33N 48°59' W 123°41'0 0.0
2014-Oct-16 09:21N 48°59' W 123°41'0 0.0
2014-Oct-16 08:33N 48°59' W 123°41'0 0.0
2014-Oct-16 07:33N 48°59' W 123°41'0 0.1
2014-Oct-16 06:25N 48°59' W 123°41'2 2.8
2014-Oct-16 05:33N 48°56' W 123°42'2 2.4
2014-Oct-16 04:31N 48°59' W 123°41'0 0.0
2014-Oct-16 03:33N 48°59' W 123°41'3 2.6
2014-Oct-16 02:34N 48°56' W 123°42'1 1.1
2014-Oct-16 01:31N 48°57' W 123°43'5 4.0
2014-Oct-16 00:12N 49°01' W 123°37'3 5.3
2014-Oct-15 23:34N 49°04' W 123°35'8 7.9
2014-Oct-15 22:34N 49°11' W 123°41'9 9.0
2014-Oct-15 21:33N 49°14' W 123°54'9 9.1
2014-Oct-15 20:33N 49°18' W 124°06'9 9.0
2014-Oct-15 19:33N 49°22' W 124°19'9 9.0
2014-Oct-15 18:33N 49°26' W 124°32'8 6.7
2014-Oct-15 17:18N 49°30' W 124°43'0 0.2
2014-Oct-15 16:10N 49°30' W 124°43'0 0.1
2014-Oct-15 15:16N 49°30' W 124°42'1 0.8
2014-Oct-15 14:32N 49°31' W 124°42'0 0.1
2014-Oct-15 13:33N 49°31' W 124°42'0 0.0
2014-Oct-15 12:33N 49°31' W 124°42'0 0.0
2014-Oct-15 11:33N 49°31' W 124°42'0 0.0
2014-Oct-15 10:33N 49°31' W 124°42'0 0.0
2014-Oct-15 09:32N 49°31' W 124°42'0 0.0
2014-Oct-15 08:33N 49°31' W 124°42'0 0.0
2014-Oct-15 07:32N 49°31' W 124°42'0 0.0
2014-Oct-15 06:33N 49°31' W 124°42'0 0.0
2014-Oct-15 05:32N 49°31' W 124°42'0 0.0
2014-Oct-15 04:32N 49°31' W 124°42'0 0.0
2014-Oct-15 03:31N 49°31' W 124°42'0 0.0
2014-Oct-15 02:12N 49°31' W 124°42'1 1.6
2014-Oct-15 01:34N 49°30' W 124°43'0 0.0
2014-Oct-15 00:32N 49°30' W 124°43'0 0.0
2014-Oct-14 23:34N 49°30' W 124°43'0 0.0
2014-Oct-14 22:32N 49°30' W 124°43'1 1.0
2014-Oct-14 21:33N 49°31' W 124°42'1 0.2
2014-Oct-14 19:07N 49°30' W 124°42'0 0.2
2014-Oct-14 18:11N 49°30' W 124°43'0 0.1
2014-Oct-14 17:09N 49°30' W 124°42'0 0.2
2014-Oct-14 15:12N 49°30' W 124°42'0 0.5
2014-Oct-14 14:34N 49°31' W 124°42'0 0.1
2014-Oct-14 13:33N 49°31' W 124°42'0 0.0
2014-Oct-14 12:33N 49°31' W 124°42'0 0.0
2014-Oct-14 11:33N 49°31' W 124°42'0 0.0
2014-Oct-14 10:33N 49°31' W 124°42'0 0.0
2014-Oct-14 09:33N 49°31' W 124°42'0 0.0
2014-Oct-14 08:33N 49°31' W 124°42'0 0.0
2014-Oct-14 07:33N 49°31' W 124°42'0 0.0
2014-Oct-14 06:33N 49°31' W 124°42'0 0.0
2014-Oct-14 05:33N 49°31' W 124°42'0 0.0
2014-Oct-14 04:32N 49°31' W 124°42'0 0.0
2014-Oct-14 03:33N 49°31' W 124°42'0 0.0
2014-Oct-14 02:32N 49°31' W 124°42'1 0.6
2014-Oct-14 01:18N 49°30' W 124°43'0 0.3
2014-Oct-14 00:12N 49°30' W 124°42'0 0.1
2014-Oct-13 23:20N 49°30' W 124°42'0 0.3
2014-Oct-13 22:17N 49°30' W 124°42'1 1.0
2014-Oct-13 21:33N 49°31' W 124°42'1 0.2
2014-Oct-13 19:14N 49°30' W 124°42'0 0.7
2014-Oct-13 18:29N 49°31' W 124°42'1 0.5
2014-Oct-13 17:08N 49°30' W 124°43'0 0.0
2014-Oct-13 16:07N 49°30' W 124°43'1 1.2
2014-Oct-13 15:32N 49°31' W 124°42'0 0.2
2014-Oct-13 14:33N 49°30' W 124°42'0 0.2
2014-Oct-13 13:33N 49°31' W 124°42'0 0.0
2014-Oct-13 12:30N 49°31' W 124°42'0 0.0
2014-Oct-13 11:24N 49°31' W 124°42'0 0.0
2014-Oct-13 10:33N 49°31' W 124°42'0 0.0
2014-Oct-13 09:30N 49°31' W 124°42'0 0.0
2014-Oct-13 08:30N 49°31' W 124°42'  
Track history (hours):
 
Tides and Currents Weather Stations Pressure Air Temp Water Temp Dewpoint Dewpoint Depression Visibility Wind Speed Wind Dir Waves Ship Positions

Kahloke

Last reported at 2014-Oct-23 07:32 UTC. Time now 2014-Oct-23 09:25 UTC.
Position N 48°59' W 123°41'.

Length 54 m; draft 2 m.

Type: Passenger vessel. MMSI: 316001236.

Date/timePositionNaut miles runAvg speedWind from/ knotsBaromVisibWave heightAir tempDewpointWater temp
2014-Oct-23 07:32N 48°59' W 123°41'1 0.4
2014-Oct-23 05:33N 48°58' W 123°40'2 1.6
2014-Oct-23 04:33N 48°57' W 123°42'1 0.7
2014-Oct-23 03:33N 48°56' W 123°42'2 1.8
2014-Oct-23 02:34N 48°58' W 123°40'3 2.5
2014-Oct-23 01:34N 48°56' W 123°43'3 2.9
2014-Oct-23 00:33N 48°59' W 123°41'0 0.3
2014-Oct-22 23:34N 48°58' W 123°41'3 2.7
2014-Oct-22 22:27N 48°56' W 123°43'4 4.0
2014-Oct-22 21:33N 48°59' W 123°41'3 3.0
2014-Oct-22 20:33N 48°56' W 123°42'1 1.4
2014-Oct-22 19:33N 48°57' W 123°41'1 0.7
2014-Oct-22 18:33N 48°57' W 123°42'1 0.9
2014-Oct-22 17:33N 48°57' W 123°42'2 1.7
2014-Oct-22 16:33N 48°58' W 123°40'3 2.9
2014-Oct-22 15:33N 48°56' W 123°43'3 3.1
2014-Oct-22 14:33N 48°58' W 123°40'0 0.3
2014-Oct-22 13:32N 48°58' W 123°40'1 0.7
2014-Oct-22 12:17N 48°59' W 123°41'0 0.0
2014-Oct-22 10:23N 48°59' W 123°41'0 0.0
2014-Oct-22 08:29N 48°59' W 123°41'0 0.0
2014-Oct-22 07:29N 48°59' W 123°41'0 0.0
2014-Oct-22 06:29N 48°59' W 123°41'1 0.9
2014-Oct-22 05:33N 48°58' W 123°40'1 1.4
2014-Oct-22 04:32N 48°57' W 123°42'1 1.0
2014-Oct-22 03:33N 48°56' W 123°42'2 1.7
2014-Oct-22 02:33N 48°58' W 123°40'2 2.2
2014-Oct-22 01:33N 48°56' W 123°42'1 1.2
2014-Oct-22 00:32N 48°57' W 123°42'2 1.8
2014-Oct-21 23:33N 48°59' W 123°41'4 3.6
2014-Oct-21 22:33N 48°56' W 123°43'4 3.6
2014-Oct-21 21:33N 48°59' W 123°41'3 3.1
2014-Oct-21 20:33N 48°56' W 123°43'2 2.0
2014-Oct-21 19:33N 48°57' W 123°40'1 1.3
2014-Oct-21 18:34N 48°57' W 123°42'0 0.5
2014-Oct-21 17:33N 48°57' W 123°41'2 1.7
2014-Oct-21 16:32N 48°58' W 123°40'3 3.2
2014-Oct-21 15:33N 48°56' W 123°43'3 3.1
2014-Oct-21 14:33N 48°58' W 123°40'0 0.2
2014-Oct-21 13:30N 48°58' W 123°40'1 0.8
2014-Oct-21 12:21N 48°59' W 123°41'0 0.0
2014-Oct-21 11:15N 48°59' W 123°41'0 0.0
2014-Oct-21 10:33N 48°59' W 123°41'0 0.0
2014-Oct-21 08:33N 48°59' W 123°41'0 0.0
2014-Oct-21 07:33N 48°59' W 123°41'0 0.0
2014-Oct-21 06:33N 48°59' W 123°41'1 0.9
2014-Oct-21 05:32N 48°58' W 123°40'2 1.6
2014-Oct-21 04:33N 48°57' W 123°42'1 0.9
2014-Oct-21 03:33N 48°56' W 123°42'2 2.1
2014-Oct-21 02:33N 48°58' W 123°40'3 2.9
2014-Oct-21 01:33N 48°56' W 123°43'2 2.4
2014-Oct-21 00:32N 48°58' W 123°42'1 1.2
2014-Oct-20 23:33N 48°59' W 123°41'4 3.6
2014-Oct-20 22:33N 48°56' W 123°43'4 3.6
2014-Oct-20 21:33N 48°59' W 123°41'0 0.3
2014-Oct-20 20:33N 48°59' W 123°41'3 2.3
2014-Oct-20 19:06N 48°56' W 123°43'2 3.5
2014-Oct-20 18:32N 48°57' W 123°42'1 0.6
2014-Oct-20 17:33N 48°57' W 123°41'2 1.8
2014-Oct-20 16:33N 48°58' W 123°40'3 3.2
2014-Oct-20 15:33N 48°56' W 123°43'2 2.3
2014-Oct-20 14:33N 48°57' W 123°40'1 0.9
2014-Oct-20 13:33N 48°58' W 123°40'1 0.7
2014-Oct-20 12:09N 48°59' W 123°41'0 0.0
2014-Oct-20 10:33N 48°59' W 123°41'0 0.0
2014-Oct-20 08:21N 48°59' W 123°41'0 0.0
2014-Oct-20 06:15N 48°59' W 123°41'1 1.3
2014-Oct-20 05:32N 48°58' W 123°40'2 1.7
2014-Oct-20 04:33N 48°57' W 123°42'1 1.1
2014-Oct-20 03:33N 48°56' W 123°42'2 2.0
2014-Oct-20 02:33N 48°58' W 123°41'2 2.5
2014-Oct-20 01:33N 48°56' W 123°43'2 2.0
2014-Oct-20 00:33N 48°58' W 123°42'1 0.8
2014-Oct-19 23:33N 48°58' W 123°41'3 3.2
2014-Oct-19 22:33N 48°56' W 123°43'4 3.5
2014-Oct-19 21:32N 48°59' W 123°41'3 3.2
2014-Oct-19 20:34N 48°56' W 123°43'2 1.9
2014-Oct-19 19:33N 48°57' W 123°40'2 2.3
2014-Oct-19 18:33N 48°56' W 123°43'3 3.3
2014-Oct-19 17:32N 48°58' W 123°40'0 0.3
2014-Oct-19 16:33N 48°58' W 123°40'3 3.1
2014-Oct-19 15:33N 48°56' W 123°43'3 2.5
2014-Oct-19 14:33N 48°57' W 123°40'1 0.7
2014-Oct-19 13:33N 48°58' W 123°41'1 0.8
2014-Oct-19 12:31N 48°59' W 123°41'0 0.0
2014-Oct-19 08:20N 48°59' W 123°41'0 0.0
2014-Oct-19 07:26N 48°59' W 123°41'0 0.0
2014-Oct-19 06:31N 48°59' W 123°41'1 0.9
2014-Oct-19 05:32N 48°58' W 123°40'1 1.3
2014-Oct-19 04:33N 48°58' W 123°41'2 2.0
2014-Oct-19 03:33N 48°56' W 123°42'2 2.5
2014-Oct-19 02:33N 48°58' W 123°40'3 3.0
2014-Oct-19 01:34N 48°56' W 123°43'3 2.6
2014-Oct-19 00:32N 48°58' W 123°41'1 0.9
2014-Oct-18 23:33N 48°59' W 123°41'4 3.6
2014-Oct-18 22:33N 48°56' W 123°43'4 3.6
2014-Oct-18 21:34N 48°59' W 123°41'3 3.3
2014-Oct-18 20:33N 48°56' W 123°43'2 2.2
2014-Oct-18 19:33N 48°57' W 123°40'2 2.1
2014-Oct-18 18:26N 48°56' W 123°43'3 3.6
2014-Oct-18 17:29N 48°58' W 123°40'0 0.3
2014-Oct-18 16:33N 48°58' W 123°40'3 3.0
2014-Oct-18 15:31N 48°56' W 123°43'3 3.5
2014-Oct-18 14:34N 48°58' W 123°40'0 0.0
2014-Oct-18 13:32N 48°58' W 123°40'1 0.8
2014-Oct-18 12:21N 48°59' W 123°41'0 0.0
2014-Oct-18 11:09N 48°59' W 123°41'0 0.0
2014-Oct-18 10:03N 48°59' W 123°41'0 0.0
2014-Oct-18 09:21N 48°59' W 123°41'0 0.0
2014-Oct-18 07:03N 48°59' W 123°41'1 0.6
2014-Oct-18 05:33N 48°58' W 123°40'2 1.7
2014-Oct-18 04:32N 48°57' W 123°42'1 0.8
2014-Oct-18 03:33N 48°56' W 123°42'2 2.0
2014-Oct-18 02:33N 48°58' W 123°41'2 1.8
2014-Oct-18 01:33N 48°57' W 123°41'1 0.9
2014-Oct-18 00:33N 48°56' W 123°42'2 2.5
2014-Oct-17 23:33N 48°58' W 123°40'1 1.3
2014-Oct-17 22:33N 48°57' W 123°41'1 0.8
2014-Oct-17 21:33N 48°57' W 123°42'2 1.7
2014-Oct-17 20:33N 48°58' W 123°41'3 2.8
2014-Oct-17 19:33N 48°56' W 123°43'0 0.1
2014-Oct-17 18:29N 48°56' W 123°43'3 3.6
2014-Oct-17 17:32N 48°58' W 123°40'1 1.4
2014-Oct-17 16:33N 48°58' W 123°42'2 2.1
2014-Oct-17 15:33N 48°56' W 123°43'3 2.6
2014-Oct-17 14:33N 48°58' W 123°40'1 0.6
2014-Oct-17 13:33N 48°58' W 123°40'1 0.9
2014-Oct-17 12:30N 48°59' W 123°41'0 0.0
2014-Oct-17 11:30N 48°59' W 123°41'0 0.0
2014-Oct-17 10:30N 48°59' W 123°41'0 0.0
2014-Oct-17 09:12N 48°59' W 123°41'0 0.0
2014-Oct-17 07:30N 48°59' W 123°41'0 0.0
2014-Oct-17 06:24N 48°59' W 123°41'3 4.1
2014-Oct-17 05:33N 48°56' W 123°43'3 3.3
2014-Oct-17 04:33N 48°58' W 123°40'0 0.3
2014-Oct-17 03:33N 48°58' W 123°40'3 3.2
2014-Oct-17 02:33N 48°56' W 123°43'3 2.9
2014-Oct-17 01:33N 48°58' W 123°41'1 0.7
2014-Oct-17 00:33N 48°59' W 123°41'4 3.6
2014-Oct-16 23:33N 48°56' W 123°43'3 3.0
2014-Oct-16 22:33N 48°58' W 123°41'3 3.0
2014-Oct-16 21:33N 48°56' W 123°43'3 3.4
2014-Oct-16 20:33N 48°58' W 123°40'3 3.4
2014-Oct-16 19:33N 48°56' W 123°43'4 3.6
2014-Oct-16 18:34N 48°59' W 123°41'4 3.5
2014-Oct-16 17:33N 48°56' W 123°43'1 0.9
2014-Oct-16 16:12N 48°57' W 123°42'1 1.7
2014-Oct-16 15:34N 48°58' W 123°42'1 1.4
2014-Oct-16 14:32N 48°56' W 123°42'2 2.4
2014-Oct-16 13:33N 48°58' W 123°40'1 1.0
2014-Oct-16 12:33N 48°59' W 123°41'0 0.0
2014-Oct-16 11:33N 48°59' W 123°41'0 0.0
2014-Oct-16 10:33N 48°59' W 123°41'0 0.0
2014-Oct-16 09:21N 48°59' W 123°41'0 0.0
2014-Oct-16 08:33N 48°59' W 123°41'0 0.0
2014-Oct-16 07:33N 48°59' W 123°41'0 0.1
2014-Oct-16 06:25N 48°59' W 123°41'2 2.8
2014-Oct-16 05:33N 48°56' W 123°42'2 2.4
2014-Oct-16 04:31N 48°59' W 123°41'0 0.0
2014-Oct-16 03:33N 48°59' W 123°41'3 2.6
2014-Oct-16 02:34N 48°56' W 123°42'1 1.1
2014-Oct-16 01:31N 48°57' W 123°43'5 4.0
2014-Oct-16 00:12N 49°01' W 123°37'3 5.3
2014-Oct-15 23:34N 49°04' W 123°35'8 7.9
2014-Oct-15 22:34N 49°11' W 123°41'9 9.0
2014-Oct-15 21:33N 49°14' W 123°54'9 9.1
2014-Oct-15 20:33N 49°18' W 124°06'9 9.0
2014-Oct-15 19:33N 49°22' W 124°19'9 9.0
2014-Oct-15 18:33N 49°26' W 124°32'8 6.7
2014-Oct-15 17:18N 49°30' W 124°43'0 0.2
2014-Oct-15 16:10N 49°30' W 124°43'0 0.1
2014-Oct-15 15:16N 49°30' W 124°42'1 0.8
2014-Oct-15 14:32N 49°31' W 124°42'0 0.1
2014-Oct-15 13:33N 49°31' W 124°42'0 0.0
2014-Oct-15 12:33N 49°31' W 124°42'0 0.0
2014-Oct-15 11:33N 49°31' W 124°42'0 0.0
2014-Oct-15 10:33N 49°31' W 124°42'0 0.0
2014-Oct-15 09:32N 49°31' W 124°42'0 0.0
2014-Oct-15 08:33N 49°31' W 124°42'0 0.0
2014-Oct-15 07:32N 49°31' W 124°42'0 0.0
2014-Oct-15 06:33N 49°31' W 124°42'0 0.0
2014-Oct-15 05:32N 49°31' W 124°42'0 0.0
2014-Oct-15 04:32N 49°31' W 124°42'0 0.0
2014-Oct-15 03:31N 49°31' W 124°42'0 0.0
2014-Oct-15 02:12N 49°31' W 124°42'1 1.6
2014-Oct-15 01:34N 49°30' W 124°43'0 0.0
2014-Oct-15 00:32N 49°30' W 124°43'0 0.0
2014-Oct-14 23:34N 49°30' W 124°43'0 0.0
2014-Oct-14 22:32N 49°30' W 124°43'1 1.0
2014-Oct-14 21:33N 49°31' W 124°42'1 0.2
2014-Oct-14 19:07N 49°30' W 124°42'0 0.2
2014-Oct-14 18:11N 49°30' W 124°43'0 0.1
2014-Oct-14 17:09N 49°30' W 124°42'0 0.2
2014-Oct-14 15:12N 49°30' W 124°42'0 0.5
2014-Oct-14 14:34N 49°31' W 124°42'0 0.1
2014-Oct-14 13:33N 49°31' W 124°42'0 0.0
2014-Oct-14 12:33N 49°31' W 124°42'0 0.0
2014-Oct-14 11:33N 49°31' W 124°42'0 0.0
2014-Oct-14 10:33N 49°31' W 124°42'0 0.0
2014-Oct-14 09:33N 49°31' W 124°42'0 0.0
2014-Oct-14 08:33N 49°31' W 124°42'0 0.0
2014-Oct-14 07:33N 49°31' W 124°42'0 0.0
2014-Oct-14 06:33N 49°31' W 124°42'0 0.0
2014-Oct-14 05:33N 49°31' W 124°42'0 0.0
2014-Oct-14 04:32N 49°31' W 124°42'0 0.0
2014-Oct-14 03:33N 49°31' W 124°42'0 0.0
2014-Oct-14 02:32N 49°31' W 124°42'1 0.6
2014-Oct-14 01:18N 49°30' W 124°43'0 0.3
2014-Oct-14 00:12N 49°30' W 124°42'0 0.1
2014-Oct-13 23:20N 49°30' W 124°42'0 0.3
2014-Oct-13 22:17N 49°30' W 124°42'1 1.0
2014-Oct-13 21:33N 49°31' W 124°42'1 0.2
2014-Oct-13 19:14N 49°30' W 124°42'0 0.7
2014-Oct-13 18:29N 49°31' W 124°42'1 0.5
2014-Oct-13 17:08N 49°30' W 124°43'0 0.0
2014-Oct-13 16:07N 49°30' W 124°43'1 1.2
2014-Oct-13 15:32N 49°31' W 124°42'0 0.2
2014-Oct-13 14:33N 49°30' W 124°42'0 0.2
2014-Oct-13 13:33N 49°31' W 124°42'0 0.0
2014-Oct-13 12:30N 49°31' W 124°42'0 0.0
2014-Oct-13 11:24N 49°31' W 124°42'0 0.0
2014-Oct-13 10:33N 49°31' W 124°42'0 0.0
2014-Oct-13 09:30N 49°31' W 124°42'0 0.0
2014-Oct-13 08:30N 49°31' W 124°42'  

Dump ship's entire track history